Time;durP1;ratioP1;P1;durP2;ratioP2;P2;SDS_P1;SDS_P2;PMS_P1;PMS_P2;Temp;Humidity;BMP_temperature;BMP_pressure;BME280_temperature;BME280_humidity;BME280_pressure;Samples;Min_cycle;Max_cycle;Signal;HPM_P1;HPM_P2
2022/01/02 00:00:05;;;;;;;325.40;117.53;;;;;;;11.97;71.02;100304.63;341517;29;1229;-71
2022/01/02 00:00:19;;;;;;;326.23;117.82;;;;;;;11.96;70.91;100310.78;338743;29;1261;-71
2022/01/02 00:00:33;;;;;;;326.23;115.78;;;;;;;11.95;70.61;100308.22;343368;28;1562;-71
2022/01/02 00:00:44;;;;;;;324.52;112.93;;;;;;;11.97;70.68;100306.41;342673;28;885;-71
2022/01/02 00:01:00;;;;;;;324.15;113.22;;;;;;;11.96;70.96;100304.69;342608;28;1209;-72
2022/01/02 00:01:10;;;;;;;325.02;113.60;;;;;;;11.97;70.77;100301.16;343899;28;1501;-72
2022/01/02 00:01:20;;;;;;;325.50;114.60;;;;;;;11.94;70.77;100301.25;341210;29;1301;-72
2022/01/02 00:01:31;;;;;;;325.27;115.40;;;;;;;11.96;70.74;100304.69;343993;28;975;-72
2022/01/02 00:01:42;;;;;;;325.73;117.67;;;;;;;11.95;70.71;100297.72;339781;29;1324;-72
2022/01/02 00:01:53;;;;;;;325.50;118.18;;;;;;;11.96;70.67;100304.69;342531;28;1256;-72
2022/01/02 00:02:04;;;;;;;325.87;118.00;;;;;;;11.94;70.94;100296.88;343502;28;2070;-72
2022/01/02 00:02:14;;;;;;;326.73;117.75;;;;;;;11.94;70.88;100312.59;342628;28;867;-72
2022/01/02 00:02:25;;;;;;;326.23;116.05;;;;;;;11.94;70.88;100306.50;342483;28;985;-72
2022/01/02 00:02:36;;;;;;;326.20;116.17;;;;;;;11.94;70.84;100311.75;341201;29;936;-72
2022/01/02 00:02:50;;;;;;;326.73;117.95;;;;;;;11.95;70.87;100313.47;341388;29;1426;-72
2022/01/02 00:03:04;;;;;;;326.10;116.40;;;;;;;11.95;70.87;100302.97;342639;28;929;-72
2022/01/02 00:03:19;;;;;;;325.10;114.40;;;;;;;11.94;70.90;100302.13;342672;28;1426;-72
2022/01/02 00:03:33;;;;;;;325.90;115.90;;;;;;;11.95;70.63;100313.47;341285;29;877;-72
2022/01/02 00:03:43;;;;;;;325.35;116.10;;;;;;;11.94;70.86;100307.34;339956;29;1737;-72
2022/01/02 00:03:54;;;;;;;324.77;116.10;;;;;;;11.93;70.86;100310.03;340028;29;1262;-72
2022/01/02 00:04:04;;;;;;;324.90;114.55;;;;;;;11.91;70.94;100306.59;342639;28;908;-72
2022/01/02 00:04:16;;;;;;;325.87;115.43;;;;;;;11.90;70.72;100304.91;342696;28;939;-72
2022/01/02 00:04:29;;;;;;;326.02;115.78;;;;;;;11.90;70.82;100311.00;340686;29;1731;-72
2022/01/02 00:04:41;;;;;;;326.38;116.93;;;;;;;11.90;71.01;100311.00;341377;29;892;-72
2022/01/02 00:04:51;;;;;;;327.65;119.82;;;;;;;11.90;70.83;100304.91;342377;28;1295;-72
2022/01/02 00:05:11;;;;;;;329.10;120.07;;;;;;;11.91;70.76;100304.84;340317;28;1647;-72
2022/01/02 00:05:22;;;;;;;328.15;117.53;;;;;;;11.88;71.06;100301.47;341463;29;964;-72
2022/01/02 00:05:35;;;;;;;326.75;116.30;;;;;;;11.89;70.98;100308.44;338542;29;1452;-75
2022/01/02 00:05:45;;;;;;;327.42;117.40;;;;;;;11.89;70.92;100303.19;338521;29;894;-73
2022/01/02 00:05:55;;;;;;;326.35;116.35;;;;;;;11.92;70.77;100308.31;341291;29;1241;-73
2022/01/02 00:06:07;;;;;;;325.27;116.30;;;;;;;11.90;70.80;100311.00;342551;28;1287;-73
2022/01/02 00:06:25;;;;;;;324.92;115.32;;;;;;;11.92;70.59;100308.31;340029;29;973;-72
2022/01/02 00:06:36;;;;;;;324.45;113.65;;;;;;;11.90;70.80;100307.53;342596;28;877;-72
2022/01/02 00:06:51;;;;;;;323.95;112.93;;;;;;;11.91;70.88;100301.38;342457;28;1276;-72
2022/01/02 00:07:05;;;;;;;325.73;115.25;;;;;;;11.87;70.85;100302.38;339538;29;4611;-72
2022/01/02 00:07:16;;;;;;;327.17;117.25;;;;;;;11.88;71.11;100304.09;343918;28;1712;-72
2022/01/02 00:07:27;;;;;;;327.23;117.65;;;;;;;11.89;70.90;100303.19;341149;29;1418;-72
2022/01/02 00:07:56;;;;;;;326.88;116.97;;;;;;;11.90;70.69;100304.91;338526;29;1303;-72
2022/01/02 00:08:08;;;;;;;325.58;114.80;;;;;;;11.91;70.74;100302.22;338943;29;965;-72
2022/01/02 00:08:18;;;;;;;325.58;115.82;;;;;;;11.91;70.97;100307.47;342284;28;1258;-72
2022/01/02 00:08:30;;;;;;;326.90;116.23;;;;;;;11.91;70.83;100311.84;342511;28;1193;-72
2022/01/02 00:08:44;;;;;;;326.58;117.35;;;;;;;11.92;70.89;100308.31;340016;29;921;-72
2022/01/02 00:09:05;;;;;;;325.85;117.30;;;;;;;11.93;70.66;100310.03;341282;29;928;-72
2022/01/02 00:09:30;;;;;;;327.73;119.40;;;;;;;11.94;70.80;100306.50;343888;28;1434;-72
2022/01/02 00:09:44;;;;;;;325.83;113.95;;;;;;;11.93;70.84;100310.03;339940;29;2071;-72
2022/01/02 00:09:54;;;;;;;326.35;115.00;;;;;;;11.93;70.85;100299.53;341216;28;908;-72
2022/01/02 00:10:05;;;;;;;327.63;116.53;;;;;;;11.90;70.73;100304.91;345326;28;1280;-72
2022/01/02 00:10:15;;;;;;;329.40;116.75;;;;;;;11.91;70.94;100306.59;342682;28;918;-72
2022/01/02 00:10:26;;;;;;;327.97;116.80;;;;;;;11.91;70.79;100311.84;343923;28;1950;-72
2022/01/02 00:10:45;;;;;;;327.77;116.47;;;;;;;11.91;70.79;100304.84;339879;28;1185;-72
2022/01/02 00:10:58;;;;;;;325.56;113.90;;;;;;;11.92;70.85;100310.94;338582;29;1275;-72
2022/01/02 00:11:10;;;;;;;325.05;112.72;;;;;;;11.91;70.88;100310.09;341217;29;1522;-72
2022/01/02 00:11:21;;;;;;;325.52;114.78;;;;;;;11.94;70.61;100306.50;341388;29;901;-72
2022/01/02 00:11:32;;;;;;;326.95;118.10;;;;;;;11.92;70.74;100303.06;341762;28;1292;-72
2022/01/02 00:11:42;;;;;;;327.33;118.75;;;;;;;11.91;70.75;100302.22;344031;28;1032;-72
2022/01/02 00:11:53;;;;;;;327.23;118.93;;;;;;;11.92;70.57;100303.06;344036;28;909;-72
2022/01/02 00:12:09;;;;;;;327.70;118.75;;;;;;;11.92;70.66;100309.19;340606;28;1347;-72
2022/01/02 00:12:25;;;;;;;327.20;115.88;;;;;;;11.91;70.83;100307.47;341290;29;1016;-72
2022/01/02 00:12:36;;;;;;;324.92;114.53;;;;;;;11.94;70.71;100314.38;341279;29;950;-72
2022/01/02 00:12:50;;;;;;;325.55;116.40;;;;;;;11.92;70.75;100308.31;340103;29;966;-72
2022/01/02 00:13:01;;;;;;;326.35;117.57;;;;;;;11.91;70.69;100311.84;340030;29;1507;-72
2022/01/02 00:13:15;;;;;;;325.47;116.80;;;;;;;11.89;70.72;100309.28;341205;28;1221;-72
2022/01/02 00:13:33;;;;;;;325.15;114.53;;;;;;;11.91;70.69;100304.00;341447;29;965;-72
2022/01/02 00:13:47;;;;;;;328.35;118.13;;;;;;;11.92;70.64;100310.94;341496;28;1536;-72
2022/01/02 00:14:05;;;;;;;327.83;119.63;;;;;;;11.92;70.74;100309.19;342699;28;1007;-72
2022/01/02 00:14:16;;;;;;;326.55;118.88;;;;;;;11.93;70.86;100310.88;339994;29;987;-72
2022/01/02 00:14:26;;;;;;;325.05;116.72;;;;;;;11.93;71.00;100307.41;342704;28;966;-72
2022/01/02 00:14:38;;;;;;;322.53;114.20;;;;;;;11.94;70.88;100317.00;342472;28;852;-72
2022/01/02 00:14:48;;;;;;;324.02;114.43;;;;;;;11.94;70.77;100312.59;342524;28;2144;-72
2022/01/02 00:14:59;;;;;;;324.70;115.57;;;;;;;11.94;70.74;100311.75;338694;29;1822;-72
2022/01/02 00:15:09;;;;;;;326.30;117.30;;;;;;;11.93;70.56;100313.50;342498;28;1420;-71
2022/01/02 00:15:20;;;;;;;326.90;118.65;;;;;;;11.96;70.85;100309.94;344034;28;1252;-71
2022/01/02 00:15:31;;;;;;;328.73;121.90;;;;;;;11.95;70.57;100309.06;343828;28;1358;-71
2022/01/02 00:15:41;;;;;;;327.92;121.22;;;;;;;11.95;70.69;100309.06;339833;29;1457;-71
2022/01/02 00:15:52;;;;;;;326.63;119.63;;;;;;;11.93;70.51;100310.88;341238;28;1390;-71
2022/01/02 00:16:07;;;;;;;326.73;118.27;;;;;;;11.92;70.61;100309.19;342761;28;1397;-71
2022/01/02 00:16:18;;;;;;;328.10;117.90;;;;;;;11.92;70.54;100314.44;340061;28;1453;-71
2022/01/02 00:16:28;;;;;;;327.13;117.00;;;;;;;11.94;70.78;100317.00;339946;29;1236;-71
2022/01/02 00:16:39;;;;;;;327.92;118.78;;;;;;;11.93;70.60;100316.13;340019;29;920;-73
2022/01/02 00:16:50;;;;;;;326.73;118.32;;;;;;;11.94;70.58;100309.13;341327;29;1054;-73
2022/01/02 00:17:02;;;;;;;327.53;117.23;;;;;;;11.93;70.65;100304.78;342742;28;1026;-72
2022/01/02 00:17:13;;;;;;;327.20;115.05;;;;;;;11.91;70.70;100309.22;341404;29;908;-72
2022/01/02 00:17:23;;;;;;;329.02;116.90;;;;;;;11.91;70.59;100312.72;341281;29;978;-72
2022/01/02 00:17:34;;;;;;;327.00;115.03;;;;;;;11.93;70.80;100310.03;338696;29;1308;-72
2022/01/02 00:17:44;;;;;;;326.38;115.85;;;;;;;11.95;70.57;100313.47;340031;29;869;-72
2022/01/02 00:17:56;;;;;;;325.37;115.87;;;;;;;11.92;70.66;100317.03;341308;29;893;-72
2022/01/02 00:18:12;;;;;;;324.90;115.82;;;;;;;11.93;70.43;100315.28;340019;29;946;-72
2022/01/02 00:18:26;;;;;;;325.27;115.88;;;;;;;11.92;70.76;100316.19;337455;29;1566;-72
2022/01/02 00:18:40;;;;;;;325.80;116.80;;;;;;;11.91;70.61;100312.72;341543;29;1320;-72
2022/01/02 00:19:03;;;;;;;325.20;116.53;;;;;;;11.91;70.54;100315.34;342489;28;1413;-72
2022/01/02 00:19:20;;;;;;;324.45;114.50;;;;;;;11.91;70.69;100314.47;341317;29;873;-72
2022/01/02 00:19:32;;;;;;;325.23;116.68;;;;;;;11.89;70.67;100308.44;341260;29;937;-72
2022/01/02 00:19:46;;;;;;;326.08;117.65;;;;;;;11.89;70.78;100309.28;340072;29;877;-72
2022/01/02 00:19:58;;;;;;;325.70;116.63;;;;;;;11.92;70.64;100314.44;341274;29;971;-72
2022/01/02 00:20:12;;;;;;;326.55;115.78;;;;;;;11.93;70.65;100310.88;342468;28;1648;-73
2022/01/02 00:20:32;;;;;;;325.75;115.72;;;;;;;11.93;70.53;100312.66;342445;28;2222;-72
2022/01/02 00:20:47;;;;;;;326.00;116.00;;;;;;;11.92;70.62;100313.56;339928;29;956;-73
2022/01/02 00:21:00;;;;;;;326.85;115.93;;;;;;;11.90;70.70;100311.00;340060;29;960;-73
2022/01/02 00:21:11;;;;;;;326.88;116.95;;;;;;;11.90;70.56;100310.13;341279;29;1961;-73
2022/01/02 00:21:22;;;;;;;327.00;116.45;;;;;;;11.88;70.61;100304.09;342817;28;1173;-73
2022/01/02 00:21:33;;;;;;;325.45;114.15;;;;;;;11.87;70.83;100305.00;342720;28;818;-73
2022/01/02 00:21:46;;;;;;;325.92;115.05;;;;;;;11.87;70.70;100303.25;342761;28;932;-73
2022/01/02 00:22:00;;;;;;;325.10;114.65;;;;;;;11.85;70.90;100309.44;342627;28;945;-73
2022/01/02 00:22:15;;;;;;;326.98;117.20;;;;;;;11.87;70.81;100311.09;340454;29;1138;-73
2022/01/02 00:22:32;;;;;;;327.10;118.80;;;;;;;11.89;70.80;100311.91;339934;28;1431;-73
2022/01/02 00:22:47;;;;;;;324.63;116.85;;;;;;;11.91;70.66;100310.09;342718;28;885;-73
2022/01/02 00:23:07;;;;;;;324.17;116.00;;;;;;;11.90;70.87;100313.63;342641;28;945;-71
2022/01/02 00:23:21;;;;;;;326.20;116.30;;;;;;;11.92;70.61;100313.56;341054;28;1299;-72
2022/01/02 00:23:40;;;;;;;328.10;117.53;;;;;;;11.91;70.56;100317.09;338688;29;1664;-72
2022/01/02 00:24:00;;;;;;;327.98;117.47;;;;;;;11.91;70.62;100317.09;342869;28;929;-71
2022/01/02 00:24:14;;;;;;;325.13;114.78;;;;;;;11.90;70.80;100315.38;342636;28;877;-72
2022/01/02 00:24:26;;;;;;;325.33;115.68;;;;;;;11.89;70.83;100313.69;341300;29;849;-72
2022/01/02 00:24:36;;;;;;;325.65;116.35;;;;;;;11.87;70.74;100307.63;338608;29;953;-72
2022/01/02 00:24:47;;;;;;;326.40;117.37;;;;;;;11.87;70.66;100302.38;342687;28;871;-71
2022/01/02 00:24:57;;;;;;;327.02;117.03;;;;;;;11.85;70.62;100306.81;341428;29;928;-72
2022/01/02 00:25:14;;;;;;;326.77;117.97;;;;;;;11.84;70.62;100315.59;341356;29;1091;-72
2022/01/02 00:25:28;;;;;;;325.67;113.60;;;;;;;11.85;70.49;100314.69;340430;29;1398;-71
2022/01/02 00:25:41;;;;;;;326.20;113.38;;;;;;;11.84;70.48;100310.34;341243;29;1470;-72
2022/01/02 00:25:55;;;;;;;324.83;113.13;;;;;;;11.86;70.86;100319.03;341425;29;896;-72
2022/01/02 00:26:06;;;;;;;323.48;112.00;;;;;;;11.83;70.72;100316.50;339988;28;1560;-72
2022/01/02 00:26:18;;;;;;;325.25;113.75;;;;;;;11.85;70.58;100322.56;342722;28;1043;-72
2022/01/02 00:26:36;;;;;;;325.77;114.55;;;;;;;11.84;70.67;100319.09;344169;28;826;-71
2022/01/02 00:26:48;;;;;;;325.55;115.55;;;;;;;11.85;70.98;100317.31;341388;29;941;-71
2022/01/02 00:26:59;;;;;;;326.60;116.45;;;;;;;11.83;70.80;100317.38;340013;29;916;-71
2022/01/02 00:27:10;;;;;;;326.70;116.47;;;;;;;11.84;70.77;100324.31;342699;28;1240;-71
2022/01/02 00:27:21;;;;;;;326.10;115.50;;;;;;;11.86;70.65;100319.03;343865;28;1083;-72
2022/01/02 00:27:31;;;;;;;325.30;114.95;;;;;;;11.86;70.84;100321.66;342648;28;1216;-72
2022/01/02 00:27:42;;;;;;;324.80;114.67;;;;;;;11.86;70.80;100325.13;340070;29;1071;-72
2022/01/02 00:27:52;;;;;;;326.70;116.40;;;;;;;11.85;70.85;100318.16;340013;29;979;-72
2022/01/02 00:28:02;;;;;;;327.60;118.73;;;;;;;11.86;70.63;100324.28;342652;28;1321;-72
2022/01/02 00:28:13;;;;;;;329.15;120.35;;;;;;;11.86;70.74;100319.03;343917;28;1185;-72
2022/01/02 00:28:23;;;;;;;327.97;118.90;;;;;;;11.87;70.52;100320.75;340007;29;1170;-71
2022/01/02 00:28:34;;;;;;;327.23;118.53;;;;;;;11.86;70.76;100324.28;343871;28;1232;-71
2022/01/02 00:28:47;;;;;;;326.25;118.18;;;;;;;11.85;70.75;100325.19;344544;28;1947;-71
2022/01/02 00:28:57;;;;;;;326.80;118.60;;;;;;;11.85;70.55;100323.41;340843;29;2048;-71
2022/01/02 00:29:08;;;;;;;327.98;118.68;;;;;;;11.86;70.69;100321.66;341287;29;1218;-72
2022/01/02 00:29:18;;;;;;;329.90;119.73;;;;;;;11.86;70.74;100324.28;344040;28;949;-72
2022/01/02 00:29:29;;;;;;;328.90;119.05;;;;;;;11.87;70.52;100320.75;339998;29;874;-72
2022/01/02 00:29:40;;;;;;;327.90;118.23;;;;;;;11.86;70.52;100324.28;341283;29;918;-73
2022/01/02 00:29:51;;;;;;;325.33;116.18;;;;;;;11.81;70.54;100313.94;341402;29;842;-73
2022/01/02 00:30:05;;;;;;;325.87;116.57;;;;;;;11.82;70.47;100317.41;344062;28;857;-73
2022/01/02 00:30:15;;;;;;;326.45;118.32;;;;;;;11.82;70.73;100318.28;341347;29;861;-73
2022/01/02 00:30:26;;;;;;;326.07;117.97;;;;;;;11.84;70.56;100328.72;343221;28;1287;-73
2022/01/02 00:30:37;;;;;;;324.90;116.10;;;;;;;11.84;70.66;100328.72;341241;29;1352;-73
2022/01/02 00:30:47;;;;;;;325.57;115.97;;;;;;;11.86;70.67;100324.28;341305;28;1889;-73
2022/01/02 00:30:58;;;;;;;327.33;118.20;;;;;;;11.86;70.64;100325.13;339998;29;2294;-73
2022/01/02 00:31:08;;;;;;;328.35;120.55;;;;;;;11.86;70.45;100329.53;339911;28;1204;-73
2022/01/02 00:31:19;;;;;;;329.33;121.20;;;;;;;11.86;70.48;100326.91;342605;28;1331;-73
2022/01/02 00:31:30;;;;;;;329.08;121.25;;;;;;;11.88;70.35;100343.44;342717;28;1255;-73
2022/01/02 00:31:41;;;;;;;330.58;122.05;;;;;;;11.87;70.55;100334.72;344031;28;838;-73
2022/01/02 00:31:53;;;;;;;329.30;120.38;;;;;;;11.87;70.39;100336.47;345390;28;1235;-73
2022/01/02 00:32:05;;;;;;;329.10;119.22;;;;;;;11.88;70.62;100330.31;344670;28;1604;-71
2022/01/02 00:32:16;;;;;;;328.23;117.00;;;;;;;11.89;70.63;100340.75;342486;28;1755;-71
2022/01/02 00:32:26;;;;;;;328.30;118.57;;;;;;;11.90;70.41;100336.38;342458;28;1425;-72
2022/01/02 00:32:37;;;;;;;327.30;119.67;;;;;;;11.88;69.82;100330.31;346708;28;797;-72
2022/01/02 00:32:48;;;;;;;326.95;120.72;;;;;;;11.88;70.23;100330.31;343903;28;1330;-72
2022/01/02 00:32:58;;;;;;;326.83;118.83;;;;;;;11.87;70.43;100333.84;342627;28;918;-72
2022/01/02 00:33:08;;;;;;;326.10;117.15;;;;;;;11.88;70.37;100338.19;340077;29;803;-72
2022/01/02 00:33:19;;;;;;;326.53;117.47;;;;;;;11.87;70.17;100333.84;341293;29;1220;-72
2022/01/02 00:33:30;;;;;;;325.58;117.35;;;;;;;11.90;70.30;100336.38;344006;28;1027;-72
2022/01/02 00:33:41;;;;;;;325.43;117.10;;;;;;;11.90;70.31;100333.75;342667;28;895;-72
2022/01/02 00:33:51;;;;;;;323.73;115.18;;;;;;;11.91;70.49;100348.56;342512;28;1416;-72
2022/01/02 00:34:03;;;;;;;324.70;115.67;;;;;;;11.94;70.29;100340.59;338724;29;862;-72
2022/01/02 00:34:13;;;;;;;326.55;114.75;;;;;;;11.95;70.33;100335.31;341246;29;1433;-72
2022/01/02 00:34:24;;;;;;;327.97;115.93;;;;;;;11.95;70.03;100329.19;342457;28;1409;-72
2022/01/02 00:34:35;;;;;;;327.92;116.90;;;;;;;11.96;70.06;100333.53;341498;29;834;-72
2022/01/02 00:34:45;;;;;;;327.33;117.70;;;;;;;11.95;70.22;100334.44;341328;29;984;-72
2022/01/02 00:34:56;;;;;;;327.77;120.07;;;;;;;11.94;70.26;100336.22;341419;29;908;-71
2022/01/02 00:35:06;;;;;;;326.85;119.82;;;;;;;11.95;70.24;100337.06;338701;29;886;-71
2022/01/02 00:35:17;;;;;;;326.47;118.40;;;;;;;11.94;70.33;100338.84;341288;29;830;-71
2022/01/02 00:35:27;;;;;;;326.30;116.97;;;;;;;11.93;70.19;100328.41;341415;29;888;-71
2022/01/02 00:35:38;;;;;;;326.27;116.37;;;;;;;11.93;70.09;100331.03;341325;29;1220;-72
2022/01/02 00:35:48;;;;;;;326.70;116.80;;;;;;;11.93;70.42;100338.88;338767;29;997;-72
2022/01/02 00:35:58;;;;;;;326.43;116.27;;;;;;;11.93;70.39;100337.13;341337;29;876;-72
2022/01/02 00:36:09;;;;;;;326.10;116.55;;;;;;;11.94;70.33;100341.47;341448;29;948;-72
2022/01/02 00:36:19;;;;;;;324.97;117.17;;;;;;;11.94;70.23;100337.97;342287;28;1632;-72
2022/01/02 00:36:30;;;;;;;326.08;119.05;;;;;;;11.95;70.03;100343.19;340882;28;2354;-72
2022/01/02 00:36:40;;;;;;;327.10;118.07;;;;;;;11.95;70.43;100335.31;342739;28;706;-72
2022/01/02 00:36:50;;;;;;;328.65;119.18;;;;;;;11.95;70.15;100342.31;342475;28;1510;-72
2022/01/02 00:37:02;;;;;;;327.43;117.43;;;;;;;11.95;70.06;100339.69;338523;29;1217;-72
2022/01/02 00:37:12;;;;;;;327.48;117.25;;;;;;;11.92;70.14;100342.41;342181;28;1527;-72
2022/01/02 00:37:24;;;;;;;327.00;115.90;;;;;;;11.90;70.23;100339.84;342528;28;989;-72
2022/01/02 00:37:34;;;;;;;326.88;115.93;;;;;;;11.90;70.10;100331.13;343791;28;1519;-72
2022/01/02 00:37:45;;;;;;;326.30;115.90;;;;;;;11.92;70.18;100345.03;342635;28;946;-72
2022/01/02 00:37:55;;;;;;;324.67;113.90;;;;;;;11.93;69.99;100344.13;342615;28;879;-72
2022/01/02 00:38:06;;;;;;;324.97;114.13;;;;;;;11.93;70.03;100347.63;341243;28;1380;-73
2022/01/02 00:38:23;;;;;;;324.92;115.47;;;;;;;11.94;70.03;100338.84;341146;29;980;-73
2022/01/02 00:38:33;;;;;;;325.38;116.82;;;;;;;11.95;70.13;100350.19;341075;29;928;-73
2022/01/02 00:38:43;;;;;;;326.33;116.63;;;;;;;11.94;70.18;100349.34;341133;28;1303;-73
2022/01/02 00:38:54;;;;;;;326.20;117.35;;;;;;;11.93;70.09;100346.75;343616;28;1992;-73
2022/01/02 00:39:06;;;;;;;326.90;117.77;;;;;;;11.92;70.21;100345.03;343556;28;1224;-73
2022/01/02 00:39:17;;;;;;;326.58;116.57;;;;;;;11.90;70.22;100341.63;342661;28;1008;-73
2022/01/02 00:39:27;;;;;;;325.50;114.55;;;;;;;11.88;70.04;100339.03;341098;29;901;-73
2022/01/02 00:39:38;;;;;;;324.73;113.35;;;;;;;11.89;70.03;100345.16;341226;29;913;-73
2022/01/02 00:39:48;;;;;;;326.83;117.37;;;;;;;11.92;69.95;100345.03;342739;28;889;-73
2022/01/02 00:39:59;;;;;;;327.60;119.60;;;;;;;11.93;70.14;100349.38;342483;28;1267;-73
2022/01/02 00:40:10;;;;;;;330.13;120.73;;;;;;;11.94;69.96;100351.09;341281;29;940;-73
2022/01/02 00:40:20;;;;;;;329.05;118.72;;;;;;;11.93;69.94;100349.38;338669;29;886;-73
2022/01/02 00:40:33;;;;;;;328.30;116.78;;;;;;;11.92;70.12;100350.28;339124;29;1261;-73
2022/01/02 00:40:44;;;;;;;325.02;114.85;;;;;;;11.93;70.15;100337.13;342667;28;936;-73
2022/01/02 00:40:56;;;;;;;323.50;112.45;;;;;;;11.94;69.99;100345.84;343853;28;1926;-74
2022/01/02 00:41:07;;;;;;;324.52;113.88;;;;;;;11.94;69.98;100349.34;343784;28;1283;-73
2022/01/02 00:41:38;;;;;;;325.55;114.68;;;;;;;11.94;69.85;100340.59;339979;29;1729;-73
2022/01/02 00:41:53;;;;;;;325.10;115.22;;;;;;;11.93;69.91;100346.75;339872;29;990;-73
2022/01/02 00:42:09;;;;;;;324.00;114.18;;;;;;;11.92;69.79;100350.28;339962;29;913;-73
2022/01/02 00:42:40;;;;;;;325.55;116.43;;;;;;;11.96;69.90;100351.91;339950;29;1024;-73
2022/01/02 00:42:56;;;;;;;326.45;117.88;;;;;;;11.95;69.83;100351.03;342391;28;1440;-73
2022/01/02 00:43:09;;;;;;;325.20;116.70;;;;;;;11.95;69.77;100342.31;341217;29;1359;-73
2022/01/02 00:43:23;;;;;;;325.80;118.30;;;;;;;11.95;69.82;100353.66;339979;29;1292;-72
2022/01/02 00:43:45;;;;;;;327.02;120.85;;;;;;;11.98;69.62;100347.47;342631;28;964;-71
2022/01/02 00:44:03;;;;;;;328.33;120.10;;;;;;;11.96;69.52;100350.13;341214;29;866;-71
2022/01/02 00:44:26;;;;;;;326.90;118.57;;;;;;;11.96;69.72;100337.03;341367;29;826;-71
2022/01/02 00:44:52;;;;;;;325.48;115.78;;;;;;;11.96;69.68;100357.16;342317;28;1407;-71
2022/01/02 00:45:13;;;;;;;327.73;117.05;;;;;;;11.95;69.86;100350.19;342841;28;1104;-72
2022/01/02 00:45:25;;;;;;;325.75;114.28;;;;;;;11.94;69.78;100335.34;339977;29;995;-72
2022/01/02 00:45:40;;;;;;;326.25;116.57;;;;;;;11.94;69.84;100348.47;339997;29;842;-72
2022/01/02 00:45:51;;;;;;;325.77;117.10;;;;;;;11.96;69.69;100344.88;338436;28;1385;-72
2022/01/02 00:46:03;;;;;;;324.90;116.28;;;;;;;11.98;69.53;100339.59;341361;29;932;-71
2022/01/02 00:46:14;;;;;;;325.77;117.53;;;;;;;11.95;69.62;100334.44;341314;29;1271;-72
2022/01/02 00:46:24;;;;;;;326.52;117.65;;;;;;;11.96;69.63;100336.16;339990;29;937;-71
2022/01/02 00:46:35;;;;;;;328.03;118.37;;;;;;;11.96;69.54;100344.03;342549;28;1288;-71
2022/01/02 00:47:31;;;;;;;329.00;118.75;;;;;;;11.96;69.67;100341.41;342645;28;933;-71
2022/01/02 00:47:49;;;;;;;326.38;115.38;;;;;;;11.97;69.25;100343.13;342965;28;991;-71
2022/01/02 00:48:18;;;;;;;325.38;115.13;;;;;;;11.96;69.96;100341.41;341260;29;822;-73
2022/01/02 00:48:29;;;;;;;327.20;119.32;;;;;;;11.97;69.55;100343.13;340906;29;1550;-73
2022/01/02 00:48:42;;;;;;;325.58;116.80;;;;;;;11.96;69.73;100336.16;340103;29;978;-73
2022/01/02 00:48:53;;;;;;;326.15;116.03;;;;;;;11.95;69.47;100334.44;340996;29;1833;-73
2022/01/02 00:49:04;;;;;;;325.25;115.53;;;;;;;11.94;69.68;100337.97;342481;28;1193;-73
2022/01/02 00:49:15;;;;;;;325.80;117.95;;;;;;;11.95;69.61;100337.06;342677;28;893;-73
2022/01/02 00:49:25;;;;;;;326.38;117.45;;;;;;;11.95;69.58;100347.56;341187;28;1192;-71
2022/01/02 00:49:39;;;;;;;327.93;118.93;;;;;;;11.94;69.56;100337.97;344016;28;893;-72
2022/01/02 00:50:09;;;;;;;328.25;118.38;;;;;;;11.95;69.58;100339.69;343918;28;987;-72
2022/01/02 00:50:22;;;;;;;327.77;117.85;;;;;;;11.95;69.55;100334.44;343080;28;897;-72
2022/01/02 00:50:37;;;;;;;326.23;115.95;;;;;;;11.96;69.68;100341.41;339887;29;2072;-72
2022/01/02 00:50:51;;;;;;;325.67;115.55;;;;;;;11.96;69.59;100341.41;343747;28;1445;-72
2022/01/02 00:51:04;;;;;;;325.67;116.93;;;;;;;11.96;69.61;100337.03;342675;28;834;-72
2022/01/02 00:51:17;;;;;;;324.65;116.10;;;;;;;11.96;69.68;100341.41;340043;29;925;-72
2022/01/02 00:51:37;;;;;;;324.02;115.03;;;;;;;11.94;69.55;100337.97;342579;28;1392;-72
2022/01/02 00:51:50;;;;;;;326.63;117.00;;;;;;;11.95;69.57;100337.06;342443;28;897;-72
2022/01/02 00:52:04;;;;;;;326.05;117.47;;;;;;;11.96;69.45;100337.03;339738;29;1552;-72
2022/01/02 00:52:16;;;;;;;326.13;116.55;;;;;;;11.98;69.65;100347.47;342337;28;2134;-72
2022/01/02 00:52:26;;;;;;;326.15;116.00;;;;;;;11.97;69.52;100343.13;342603;28;886;-72
2022/01/02 00:52:42;;;;;;;324.80;114.93;;;;;;;11.97;69.60;100343.13;338661;29;818;-72
2022/01/02 00:52:53;;;;;;;324.42;114.30;;;;;;;11.97;69.53;100353.63;341300;29;834;-72
2022/01/02 00:53:04;;;;;;;326.60;116.93;;;;;;;11.95;69.49;100339.69;341733;29;1351;-72
2022/01/02 00:53:17;;;;;;;328.63;121.47;;;;;;;11.95;69.68;100337.06;342467;28;1482;-72
2022/01/02 00:53:27;;;;;;;328.45;121.45;;;;;;;11.95;69.61;100342.31;338771;29;811;-72
2022/01/02 00:53:38;;;;;;;329.90;120.85;;;;;;;11.96;69.39;100351.91;340675;29;1504;-72
2022/01/02 00:53:48;;;;;;;329.30;118.90;;;;;;;11.97;69.55;100337.88;341291;29;862;-72
2022/01/02 00:53:58;;;;;;;328.40;116.83;;;;;;;11.96;69.50;100351.91;342650;28;916;-72
2022/01/02 00:54:09;;;;;;;326.37;113.53;;;;;;;11.98;69.40;100344.84;339865;29;1424;-72
2022/01/02 00:54:22;;;;;;;326.60;114.57;;;;;;;11.97;69.42;100343.97;341218;29;1207;-72
2022/01/02 00:54:32;;;;;;;325.80;114.30;;;;;;;11.97;69.49;100337.88;341187;29;938;-72
2022/01/02 00:54:45;;;;;;;326.03;115.67;;;;;;;11.96;69.39;100351.91;340024;29;957;-72
2022/01/02 00:54:56;;;;;;;326.08;115.75;;;;;;;11.95;69.64;100340.56;339942;29;899;-72
2022/01/02 00:55:09;;;;;;;327.67;116.20;;;;;;;11.95;69.74;100352.81;341329;29;936;-72
2022/01/02 00:55:23;;;;;;;327.67;115.43;;;;;;;11.97;69.54;100353.63;341145;29;1413;-72
2022/01/02 00:55:34;;;;;;;325.95;116.20;;;;;;;11.97;69.62;100353.63;341323;29;909;-72
2022/01/02 00:55:45;;;;;;;324.65;116.32;;;;;;;11.97;69.50;100345.75;340051;29;1047;-72
2022/01/02 00:55:56;;;;;;;324.25;115.90;;;;;;;11.97;69.58;100346.59;342575;28;1441;-72
2022/01/02 00:56:07;;;;;;;324.70;115.53;;;;;;;11.99;69.27;100354.41;341460;28;883;-72
2022/01/02 00:56:18;;;;;;;325.53;115.53;;;;;;;12.00;69.57;100356.13;338759;29;957;-72
2022/01/02 00:56:28;;;;;;;326.95;116.90;;;;;;;11.99;69.46;100341.31;342522;28;1531;-73
2022/01/02 00:56:41;;;;;;;327.35;116.13;;;;;;;11.98;69.37;100348.31;341277;29;1183;-72
2022/01/02 00:56:51;;;;;;;327.35;117.63;;;;;;;11.98;69.30;100344.84;340063;29;1118;-72
2022/01/02 00:57:08;;;;;;;326.95;116.85;;;;;;;11.97;69.31;100353.63;343878;28;1228;-72
2022/01/02 00:57:18;;;;;;;327.33;117.68;;;;;;;11.96;68.93;100349.28;343902;28;1340;-72
2022/01/02 00:57:33;;;;;;;326.35;116.25;;;;;;;11.96;69.21;100357.16;341145;29;1222;-72
2022/01/02 00:57:43;;;;;;;323.85;114.78;;;;;;;11.96;69.42;100346.66;341342;29;1312;-72
2022/01/02 00:58:01;;;;;;;325.73;117.13;;;;;;;11.93;69.71;100352.00;341239;28;940;-72
2022/01/02 00:58:13;;;;;;;327.02;119.13;;;;;;;11.92;69.64;100360.78;345302;28;849;-72
2022/01/02 00:58:29;;;;;;;327.23;118.22;;;;;;;11.93;69.36;100357.25;342690;28;1438;-72
2022/01/02 00:58:51;;;;;;;328.30;118.22;;;;;;;11.95;69.30;100355.44;342553;28;1080;-73
2022/01/02 00:59:01;;;;;;;325.95;115.68;;;;;;;11.94;69.32;100349.34;346549;28;1193;-71